Time;durP1;ratioP1;P1;durP2;ratioP2;P2;SDS_P1;SDS_P2;PMS_P1;PMS_P2;Temp;Humidity;BMP_temperature;BMP_pressure;BME280_temperature;BME280_humidity;BME280_pressure;Samples;Min_cycle;Max_cycle;Signal;HPM_P1;HPM_P2
2021/12/23 00:00:26;;;;;;;29.10;12.23;;;;;;;;;;5063115;28;20070;-84
2021/12/23 00:02:54;;;;;;;29.97;12.07;;;;;;;;;;5064022;28;20124;-84
2021/12/23 00:05:19;;;;;;;25.67;12.73;;;;;;;;;;5064882;28;20405;-83
2021/12/23 00:07:44;;;;;;;28.57;10.90;;;;;;;;;;5055226;28;20029;-84
2021/12/23 00:10:10;;;;;;;33.60;13.93;;;;;;;;;;5061754;28;20013;-84
2021/12/23 00:12:36;;;;;;;32.17;13.70;;;;;;;;;;5061674;28;20083;-84
2021/12/23 00:15:03;;;;;;;39.17;14.20;;;;;;;;;;5065289;28;20541;-84
2021/12/23 00:23:22;;;;;;;36.63;15.97;;;;;;;;;;5063772;28;20036;-84
2021/12/23 00:25:28;;;;;;;40.67;15.20;;;;;;;;;;5058789;28;21204;-84
2021/12/23 00:27:53;;;;;;;49.00;16.83;;;;;;;;;;5054760;28;20104;-84
2021/12/23 00:30:18;;;;;;;54.43;16.93;;;;;;;;;;5054038;28;20109;-85
2021/12/23 00:32:44;;;;;;;50.87;17.03;;;;;;;;;;5062044;28;20029;-84
2021/12/23 00:35:10;;;;;;;54.70;18.03;;;;;;;;;;5057317;28;20428;-84
2021/12/23 00:37:39;;;;;;;43.93;16.53;;;;;;;;;;5065781;28;20032;-84
2021/12/23 00:40:05;;;;;;;41.80;16.87;;;;;;;;;;5054042;28;20021;-84
2021/12/23 00:42:32;;;;;;;39.43;15.77;;;;;;;;;;5062047;28;20740;-84
2021/12/23 00:44:57;;;;;;;39.03;15.03;;;;;;;;;;5053059;28;20025;-84
2021/12/23 00:47:23;;;;;;;41.73;14.23;;;;;;;;;;5061318;28;20017;-84
2021/12/23 00:49:48;;;;;;;40.77;14.67;;;;;;;;;;5060926;28;20527;-84
2021/12/23 00:52:17;;;;;;;35.90;13.23;;;;;;;;;;5060602;28;20048;-84
2021/12/23 00:54:42;;;;;;;31.30;12.37;;;;;;;;;;5061077;28;20021;-84
2021/12/23 00:57:07;;;;;;;35.27;13.30;;;;;;;;;;5063313;28;20024;-84
2021/12/23 00:59:32;;;;;;;30.63;12.10;;;;;;;;;;5057609;28;20400;-84
2021/12/23 01:01:58;;;;;;;33.40;13.87;;;;;;;;;;5060055;28;20024;-84
2021/12/23 01:04:23;;;;;;;26.83;12.20;;;;;;;;;;5046184;28;20017;-84
2021/12/23 01:06:48;;;;;;;29.73;12.77;;;;;;;;;;5060217;28;20465;-84
2021/12/23 01:09:13;;;;;;;29.63;12.03;;;;;;;;;;5052573;28;20496;-84
2021/12/23 01:11:39;;;;;;;28.60;12.73;;;;;;;;;;5061248;28;20025;-84
2021/12/23 01:14:28;;;;;;;31.53;13.00;;;;;;;;;;5061939;28;20017;-84
2021/12/23 01:17:12;;;;;;;29.20;12.97;;;;;;;;;;5056858;28;20049;-84
2021/12/23 01:19:39;;;;;;;27.83;12.37;;;;;;;;;;5052951;28;20028;-84
2021/12/23 01:22:05;;;;;;;24.93;12.53;;;;;;;;;;5055143;28;20094;-84
2021/12/23 01:24:33;;;;;;;30.67;14.07;;;;;;;;;;5058514;28;20079;-84
2021/12/23 01:26:58;;;;;;;29.00;13.40;;;;;;;;;;5060108;28;20024;-84
2021/12/23 01:29:23;;;;;;;28.97;13.13;;;;;;;;;;5058127;28;20095;-84
2021/12/23 01:31:49;;;;;;;33.37;13.73;;;;;;;;;;5060264;28;20021;-84
2021/12/23 01:34:14;;;;;;;30.27;13.40;;;;;;;;;;5061528;28;20031;-84
2021/12/23 01:36:39;;;;;;;31.90;14.80;;;;;;;;;;5053599;28;20025;-84
2021/12/23 01:39:04;;;;;;;33.53;14.73;;;;;;;;;;5059871;28;20028;-84
2021/12/23 01:41:29;;;;;;;36.10;14.03;;;;;;;;;;5051894;28;20029;-83
2021/12/23 01:43:55;;;;;;;30.13;13.40;;;;;;;;;;5060185;28;20078;-83
2021/12/23 01:46:22;;;;;;;30.83;14.40;;;;;;;;;;5062182;28;20388;-84
2021/12/23 01:48:47;;;;;;;33.87;13.73;;;;;;;;;;5056650;28;20067;-83
2021/12/23 01:51:13;;;;;;;39.80;15.03;;;;;;;;;;5059853;28;20028;-84
2021/12/23 01:53:39;;;;;;;36.07;14.10;;;;;;;;;;5058301;28;20028;-83
2021/12/23 01:56:04;;;;;;;36.17;14.63;;;;;;;;;;5062304;28;20101;-84
2021/12/23 01:58:29;;;;;;;38.07;15.47;;;;;;;;;;5059309;28;20025;-84
2021/12/23 02:00:54;;;;;;;34.50;14.80;;;;;;;;;;5059980;28;20029;-84
2021/12/23 02:03:20;;;;;;;40.40;15.90;;;;;;;;;;5084682;28;20166;-84
2021/12/23 02:05:45;;;;;;;34.80;14.77;;;;;;;;;;5051895;28;20098;-84
2021/12/23 02:08:11;;;;;;;37.70;15.67;;;;;;;;;;5060551;28;20021;-84
2021/12/23 02:10:36;;;;;;;36.73;14.23;;;;;;;;;;5050973;28;20025;-83
2021/12/23 02:13:02;;;;;;;32.60;13.57;;;;;;;;;;5052827;28;20080;-84
2021/12/23 02:15:27;;;;;;;38.37;14.47;;;;;;;;;;5051156;28;20405;-84
2021/12/23 02:17:53;;;;;;;37.17;14.00;;;;;;;;;;5057847;28;20472;-84
2021/12/23 02:20:20;;;;;;;32.23;13.17;;;;;;;;;;5054514;28;20075;-84
2021/12/23 02:22:46;;;;;;;36.03;15.27;;;;;;;;;;5058018;28;20025;-84
2021/12/23 02:25:11;;;;;;;33.33;13.67;;;;;;;;;;5051156;28;20029;-84
2021/12/23 02:27:37;;;;;;;29.10;12.47;;;;;;;;;;5059111;28;20021;-84
2021/12/23 02:30:04;;;;;;;36.47;14.23;;;;;;;;;;5056104;28;20491;-84
2021/12/23 02:32:30;;;;;;;32.40;14.87;;;;;;;;;;5061762;28;20020;-84
2021/12/23 02:34:55;;;;;;;36.77;15.70;;;;;;;;;;5051060;28;20028;-84
2021/12/23 02:37:20;;;;;;;37.67;15.70;;;;;;;;;;5051244;28;20017;-84
2021/12/23 02:39:45;;;;;;;39.70;16.07;;;;;;;;;;5059627;28;20032;-84
2021/12/23 02:42:11;;;;;;;42.40;17.47;;;;;;;;;;5059184;28;20049;-84
2021/12/23 02:44:36;;;;;;;38.40;16.30;;;;;;;;;;5051064;28;21657;-84
2021/12/23 02:47:01;;;;;;;39.87;16.50;;;;;;;;;;5059339;28;20017;-84
2021/12/23 02:49:29;;;;;;;37.33;16.33;;;;;;;;;;5050856;28;20040;-84
2021/12/23 02:51:54;;;;;;;41.07;17.67;;;;;;;;;;5055968;28;20017;-84
2021/12/23 02:54:20;;;;;;;32.60;13.80;;;;;;;;;;5061936;28;20031;-84
2021/12/23 02:56:45;;;;;;;37.43;14.90;;;;;;;;;;5051016;28;20025;-85
2021/12/23 02:59:10;;;;;;;38.37;17.00;;;;;;;;;;5050964;28;20028;-84
2021/12/23 03:01:35;;;;;;;42.03;18.57;;;;;;;;;;5061889;28;20087;-84
2021/12/23 03:04:01;;;;;;;50.57;19.87;;;;;;;;;;5062375;28;20025;-84
2021/12/23 03:06:26;;;;;;;46.07;19.53;;;;;;;;;;5061727;28;20016;-84
2021/12/23 03:08:54;;;;;;;45.17;19.20;;;;;;;;;;5060182;28;20044;-84
2021/12/23 03:11:21;;;;;;;42.40;17.93;;;;;;;;;;5058933;28;20024;-84
2021/12/23 03:13:47;;;;;;;46.37;19.23;;;;;;;;;;5061282;28;20784;-84
2021/12/23 03:16:13;;;;;;;49.83;18.87;;;;;;;;;;5063468;28;20437;-84
2021/12/23 03:18:39;;;;;;;41.27;18.37;;;;;;;;;;5053560;28;20056;-84
2021/12/23 03:21:04;;;;;;;42.23;18.17;;;;;;;;;;5055278;28;20029;-84
2021/12/23 03:23:30;;;;;;;41.63;18.10;;;;;;;;;;5064121;28;20099;-84
2021/12/23 03:25:55;;;;;;;45.87;18.37;;;;;;;;;;5057708;28;20392;-84
2021/12/23 03:28:20;;;;;;;45.63;17.70;;;;;;;;;;5065855;28;20028;-84
2021/12/23 03:30:46;;;;;;;39.77;17.07;;;;;;;;;;5057084;28;20028;-84
2021/12/23 03:33:11;;;;;;;37.63;16.70;;;;;;;;;;5065913;28;20024;-85
2021/12/23 03:35:36;;;;;;;39.43;16.93;;;;;;;;;;5065207;28;20027;-84
2021/12/23 03:38:02;;;;;;;41.03;17.73;;;;;;;;;;5054510;28;20049;-84
2021/12/23 03:40:27;;;;;;;47.17;18.00;;;;;;;;;;5054350;28;20529;-84
2021/12/23 03:42:53;;;;;;;44.63;18.10;;;;;;;;;;5064516;28;20119;-84
2021/12/23 03:45:18;;;;;;;38.90;17.27;;;;;;;;;;5065105;28;20024;-84
2021/12/23 03:47:48;;;;;;;50.13;19.17;;;;;;;;;;5057617;28;20104;-84
2021/12/23 03:50:17;;;;;;;50.00;18.27;;;;;;;;;;5053953;28;20070;-84
2021/12/23 03:52:42;;;;;;;45.27;17.70;;;;;;;;;;5062987;28;20021;-84
2021/12/23 03:55:07;;;;;;;46.70;18.60;;;;;;;;;;5058084;28;20094;-84
2021/12/23 03:57:33;;;;;;;40.40;17.87;;;;;;;;;;5065493;28;20028;-84
2021/12/23 03:59:58;;;;;;;45.87;16.47;;;;;;;;;;5062097;28;20548;-84
2021/12/23 04:02:23;;;;;;;45.23;18.17;;;;;;;;;;5053823;28;20029;-84
2021/12/23 04:04:48;;;;;;;46.77;19.57;;;;;;;;;;5064009;28;20491;-84
2021/12/23 04:07:14;;;;;;;41.50;16.90;;;;;;;;;;5065523;28;20035;-84
2021/12/23 04:09:39;;;;;;;43.17;17.87;;;;;;;;;;5065100;28;20064;-84
2021/12/23 04:12:04;;;;;;;46.43;19.30;;;;;;;;;;5061220;28;20025;-84
2021/12/23 04:14:30;;;;;;;46.50;19.83;;;;;;;;;;5053617;28;20025;-84
2021/12/23 04:16:55;;;;;;;44.57;17.83;;;;;;;;;;5061994;28;20052;-84
2021/12/23 04:19:20;;;;;;;47.03;19.00;;;;;;;;;;5053432;28;20380;-84
2021/12/23 04:21:45;;;;;;;41.00;14.13;;;;;;;;;;5085870;28;20040;-84
2021/12/23 04:24:11;;;;;;;33.40;12.80;;;;;;;;;;5057010;28;20024;-85
2021/12/23 04:26:37;;;;;;;33.03;13.50;;;;;;;;;;5065013;28;20028;-84
2021/12/23 04:29:03;;;;;;;41.37;17.87;;;;;;;;;;5062368;28;20044;-85
2021/12/23 04:31:28;;;;;;;44.97;18.57;;;;;;;;;;5061059;28;20032;-84
2021/12/23 04:33:54;;;;;;;43.57;18.57;;;;;;;;;;5053826;28;20070;-84
2021/12/23 04:36:19;;;;;;;46.30;18.70;;;;;;;;;;5053449;28;20043;-84
2021/12/23 04:38:45;;;;;;;46.20;18.23;;;;;;;;;;5061892;28;20471;-84
2021/12/23 04:41:11;;;;;;;47.43;18.73;;;;;;;;;;5061683;28;20034;-84
2021/12/23 04:43:37;;;;;;;45.03;18.70;;;;;;;;;;5060963;28;20021;-84
2021/12/23 04:46:03;;;;;;;52.03;18.70;;;;;;;;;;5060536;28;20021;-84
2021/12/23 04:48:28;;;;;;;48.77;18.30;;;;;;;;;;5053043;28;20106;-84
2021/12/23 04:50:53;;;;;;;42.67;18.17;;;;;;;;;;5061721;28;20390;-84
2021/12/23 04:53:19;;;;;;;49.53;19.60;;;;;;;;;;5060457;28;20029;-84
2021/12/23 04:55:44;;;;;;;49.67;19.80;;;;;;;;;;5052713;28;20081;-84
2021/12/23 04:58:09;;;;;;;53.63;19.43;;;;;;;;;;5052632;28;20056;-84
2021/12/23 05:00:35;;;;;;;53.37;19.77;;;;;;;;;;5085393;28;20384;-84
2021/12/23 05:03:00;;;;;;;47.43;19.00;;;;;;;;;;5060854;28;20032;-84
2021/12/23 05:05:25;;;;;;;46.40;17.80;;;;;;;;;;5060077;28;20424;-84
2021/12/23 05:07:50;;;;;;;44.13;18.17;;;;;;;;;;5067461;28;20028;-84
2021/12/23 05:10:16;;;;;;;51.03;19.17;;;;;;;;;;5053233;28;20028;-84
2021/12/23 05:12:44;;;;;;;47.17;18.83;;;;;;;;;;5060512;28;20029;-83
2021/12/23 05:15:13;;;;;;;51.07;19.83;;;;;;;;;;5067317;28;20025;-84
2021/12/23 05:17:39;;;;;;;46.40;19.10;;;;;;;;;;5060071;28;20039;-83
2021/12/23 05:20:05;;;;;;;47.80;19.70;;;;;;;;;;5052350;28;20459;-84
2021/12/23 05:22:30;;;;;;;50.57;18.07;;;;;;;;;;5052146;28;20029;-83
2021/12/23 05:24:55;;;;;;;52.07;19.97;;;;;;;;;;5060187;28;20094;-84
2021/12/23 05:27:20;;;;;;;41.60;16.77;;;;;;;;;;5062654;28;20032;-84
2021/12/23 05:29:46;;;;;;;46.10;18.13;;;;;;;;;;5063600;28;20528;-84
2021/12/23 05:32:11;;;;;;;50.87;18.47;;;;;;;;;;5062060;28;20036;-84
2021/12/23 05:34:36;;;;;;;44.60;17.37;;;;;;;;;;5060079;28;20028;-84
2021/12/23 05:37:01;;;;;;;48.57;18.47;;;;;;;;;;5059736;28;20035;-83
2021/12/23 05:39:27;;;;;;;44.87;18.17;;;;;;;;;;5062175;28;20037;-84
2021/12/23 05:41:52;;;;;;;51.80;17.20;;;;;;;;;;5064657;28;20016;-84
2021/12/23 05:44:17;;;;;;;44.10;17.67;;;;;;;;;;5061941;28;20016;-84
2021/12/23 05:46:42;;;;;;;44.47;16.60;;;;;;;;;;5051128;28;20028;-83
2021/12/23 05:49:08;;;;;;;45.23;16.67;;;;;;;;;;5060738;28;20020;-84
2021/12/23 05:51:33;;;;;;;45.37;17.03;;;;;;;;;;5059866;28;20040;-84
2021/12/23 05:53:58;;;;;;;48.37;17.30;;;;;;;;;;5058267;28;20016;-84
2021/12/23 05:56:23;;;;;;;47.50;17.17;;;;;;;;;;5060960;28;20074;-84
2021/12/23 05:58:49;;;;;;;47.70;18.30;;;;;;;;;;5056486;28;20020;-84
2021/12/23 06:01:14;;;;;;;52.40;18.70;;;;;;;;;;5053358;28;20048;-83
2021/12/23 06:03:40;;;;;;;40.13;16.73;;;;;;;;;;5048988;28;20013;-83
2021/12/23 06:06:05;;;;;;;47.20;16.17;;;;;;;;;;5036521;28;20104;-82
2021/12/23 06:08:30;;;;;;;42.03;16.67;;;;;;;;;;5076215;28;20079;-83
2021/12/23 06:10:55;;;;;;;42.17;16.57;;;;;;;;;;5051546;28;20078;-83
2021/12/23 06:13:21;;;;;;;42.67;15.53;;;;;;;;;;5046423;28;20079;-83
2021/12/23 06:15:46;;;;;;;46.40;17.30;;;;;;;;;;5045978;28;20070;-84
2021/12/23 06:18:11;;;;;;;46.43;16.30;;;;;;;;;;5059564;28;20043;-83
2021/12/23 06:20:36;;;;;;;45.73;17.43;;;;;;;;;;5057149;28;20028;-84
2021/12/23 06:23:02;;;;;;;44.07;17.67;;;;;;;;;;5055598;28;20539;-84
2021/12/23 06:25:28;;;;;;;43.20;15.53;;;;;;;;;;5061919;28;20040;-84
2021/12/23 06:27:53;;;;;;;41.30;16.37;;;;;;;;;;5054526;28;20500;-84
2021/12/23 06:30:18;;;;;;;53.93;17.67;;;;;;;;;;5054712;28;20020;-83
2021/12/23 06:32:51;;;;;;;46.40;16.33;;;;;;;;;;5059608;28;20388;-83
2021/12/23 06:35:17;;;;;;;44.30;16.57;;;;;;;;;;5059263;28;20021;-83
2021/12/23 06:37:43;;;;;;;26.53;8.80;;;;;;;;;;5059220;28;20084;-84
2021/12/23 06:40:09;;;;;;;39.63;15.37;;;;;;;;;;5078581;28;20361;-84
2021/12/23 06:42:34;;;;;;;42.07;16.50;;;;;;;;;;5058542;28;20032;-83
2021/12/23 06:45:00;;;;;;;50.17;17.43;;;;;;;;;;5054939;28;20051;-83
2021/12/23 06:47:25;;;;;;;48.37;17.20;;;;;;;;;;5062563;28;20035;-83
2021/12/23 06:49:50;;;;;;;42.63;15.50;;;;;;;;;;5059450;28;20021;-83
2021/12/23 06:52:15;;;;;;;46.57;16.73;;;;;;;;;;5066185;28;20024;-84
2021/12/23 06:54:45;;;;;;;40.13;14.93;;;;;;;;;;5052803;28;20025;-83
2021/12/23 06:57:11;;;;;;;43.53;16.70;;;;;;;;;;5058325;28;20024;-84
2021/12/23 06:59:36;;;;;;;47.20;15.93;;;;;;;;;;5065648;28;20509;-84
2021/12/23 07:02:01;;;;;;;43.97;16.57;;;;;;;;;;5063184;28;20384;-83
2021/12/23 07:04:31;;;;;;;45.50;17.03;;;;;;;;;;5063008;28;20509;-83
2021/12/23 07:07:09;;;;;;;43.67;16.20;;;;;;;;;;5060352;28;20457;-83
2021/12/23 07:09:42;;;;;;;40.80;14.57;;;;;;;;;;5056888;28;20037;-83
2021/12/23 07:12:09;;;;;;;46.90;17.30;;;;;;;;;;5047494;28;20071;-83
2021/12/23 07:14:34;;;;;;;44.63;16.27;;;;;;;;;;5048916;28;20671;-83
2021/12/23 07:17:00;;;;;;;45.07;15.70;;;;;;;;;;5062416;28;20074;-84
2021/12/23 07:19:25;;;;;;;41.47;15.37;;;;;;;;;;5062395;28;20021;-84
2021/12/23 07:21:50;;;;;;;39.87;15.73;;;;;;;;;;5061194;28;20132;-84
2021/12/23 07:24:16;;;;;;;43.43;16.17;;;;;;;;;;5062550;28;20472;-83
2021/12/23 07:26:41;;;;;;;39.40;14.87;;;;;;;;;;5054246;28;20025;-83
2021/12/23 07:29:06;;;;;;;46.53;15.80;;;;;;;;;;5061888;28;20025;-83
2021/12/23 07:31:31;;;;;;;45.50;16.40;;;;;;;;;;5055246;28;20036;-83
2021/12/23 07:33:56;;;;;;;51.10;17.77;;;;;;;;;;5058129;28;20025;-83
2021/12/23 07:36:23;;;;;;;45.43;15.77;;;;;;;;;;5065319;28;20102;-83
2021/12/23 07:38:49;;;;;;;47.57;16.60;;;;;;;;;;5056656;28;20025;-83
2021/12/23 07:41:14;;;;;;;46.47;17.53;;;;;;;;;;5045304;28;20025;-83
2021/12/23 07:46:05;;;;;;;49.47;17.13;;;;;;;;;;5052056;28;20021;-83
2021/12/23 07:48:31;;;;;;;48.87;16.63;;;;;;;;;;5057865;28;20059;-83
2021/12/23 07:50:56;;;;;;;43.77;15.90;;;;;;;;;;5057916;28;20021;-83
2021/12/23 07:53:22;;;;;;;45.67;16.87;;;;;;;;;;5062467;28;20017;-83
2021/12/23 07:55:47;;;;;;;41.77;14.37;;;;;;;;;;5066049;28;20024;-83
2021/12/23 07:58:12;;;;;;;45.67;15.57;;;;;;;;;;5064355;28;20075;-83
2021/12/23 08:00:38;;;;;;;42.67;16.27;;;;;;;;;;5059760;28;20460;-83
2021/12/23 08:03:03;;;;;;;46.87;16.23;;;;;;;;;;5052347;28;20032;-83
2021/12/23 08:05:30;;;;;;;44.50;16.80;;;;;;;;;;5061354;28;20119;-83
2021/12/23 08:07:56;;;;;;;54.47;16.10;;;;;;;;;;5053872;28;20025;-83
2021/12/23 08:10:21;;;;;;;46.43;15.83;;;;;;;;;;5061957;28;20487;-84
2021/12/23 08:12:46;;;;;;;42.50;14.80;;;;;;;;;;5060678;28;20025;-83
2021/12/23 08:15:12;;;;;;;46.50;16.10;;;;;;;;;;5050905;28;20030;-83
2021/12/23 08:17:37;;;;;;;44.13;15.33;;;;;;;;;;5049913;28;20020;-84
2021/12/23 08:20:03;;;;;;;41.57;15.00;;;;;;;;;;5063748;28;20119;-83
2021/12/23 08:22:28;;;;;;;43.23;16.33;;;;;;;;;;5056268;28;20021;-83
2021/12/23 08:24:54;;;;;;;49.83;16.67;;;;;;;;;;5063456;28;20082;-83
2021/12/23 08:27:21;;;;;;;47.73;16.87;;;;;;;;;;5059158;28;20063;-83
2021/12/23 08:29:46;;;;;;;46.83;17.80;;;;;;;;;;5061237;28;20468;-83
2021/12/23 08:32:11;;;;;;;43.77;16.07;;;;;;;;;;5063659;28;20025;-83
2021/12/23 08:34:37;;;;;;;50.27;17.20;;;;;;;;;;5059445;28;20021;-82
2021/12/23 08:37:06;;;;;;;41.87;15.70;;;;;;;;;;5048983;28;20033;-83
2021/12/23 08:39:31;;;;;;;42.07;15.80;;;;;;;;;;5066916;28;20024;-83
2021/12/23 08:41:57;;;;;;;44.33;15.87;;;;;;;;;;5055349;28;20028;-83
2021/12/23 08:44:22;;;;;;;46.60;18.10;;;;;;;;;;5048566;28;20013;-83
2021/12/23 08:46:47;;;;;;;40.60;15.83;;;;;;;;;;5055051;28;20031;-83
2021/12/23 08:49:12;;;;;;;40.33;14.53;;;;;;;;;;5064281;28;20016;-83
2021/12/23 08:51:38;;;;;;;46.80;15.87;;;;;;;;;;5056139;28;20497;-83
2021/12/23 08:54:04;;;;;;;46.47;16.13;;;;;;;;;;5067820;28;20035;-83
2021/12/23 08:56:29;;;;;;;45.63;16.73;;;;;;;;;;5059200;28;20025;-83
2021/12/23 08:58:55;;;;;;;47.80;16.10;;;;;;;;;;5063426;28;20036;-83
2021/12/23 09:01:20;;;;;;;44.30;17.20;;;;;;;;;;5064052;28;20382;-83
2021/12/23 09:03:46;;;;;;;50.73;16.77;;;;;;;;;;5062753;28;20074;-83
2021/12/23 09:06:11;;;;;;;47.17;17.27;;;;;;;;;;5054868;28;20017;-83
2021/12/23 09:08:36;;;;;;;42.23;15.47;;;;;;;;;;5060369;28;20127;-83
2021/12/23 09:11:03;;;;;;;41.50;15.53;;;;;;;;;;5060974;28;20031;-83
2021/12/23 09:13:28;;;;;;;44.97;16.20;;;;;;;;;;5055670;28;20035;-83
2021/12/23 09:15:53;;;;;;;41.40;15.77;;;;;;;;;;5061743;28;20116;-83
2021/12/23 09:18:20;;;;;;;49.03;17.27;;;;;;;;;;5063777;28;20066;-83
2021/12/23 09:20:46;;;;;;;44.37;15.70;;;;;;;;;;5054146;28;20028;-83
2021/12/23 09:23:11;;;;;;;41.70;14.93;;;;;;;;;;5066760;28;20024;-83
2021/12/23 09:25:37;;;;;;;44.13;16.77;;;;;;;;;;5055234;28;20456;-83
2021/12/23 09:28:10;;;;;;;43.97;16.43;;;;;;;;;;5060063;28;20024;-83
2021/12/23 09:33:20;;;;;;;38.13;16.17;;;;;;;;;;5055254;28;20028;-83
2021/12/23 09:35:45;;;;;;;46.07;16.83;;;;;;;;;;5061867;28;20028;-83
2021/12/23 09:38:11;;;;;;;44.80;17.37;;;;;;;;;;5052594;28;20111;-83
2021/12/23 09:40:37;;;;;;;43.87;16.30;;;;;;;;;;5061238;28;20103;-83
2021/12/23 09:43:04;;;;;;;50.63;16.33;;;;;;;;;;5059814;28;20030;-83
2021/12/23 09:45:30;;;;;;;42.67;14.30;;;;;;;;;;5061515;28;20048;-83
2021/12/23 09:47:56;;;;;;;47.20;15.43;;;;;;;;;;5054600;28;20021;-83
2021/12/23 09:50:23;;;;;;;43.77;16.33;;;;;;;;;;5059994;28;20027;-83
2021/12/23 09:52:50;;;;;;;38.03;14.20;;;;;;;;;;5059469;28;20102;-83
2021/12/23 09:55:17;;;;;;;39.27;14.37;;;;;;;;;;5060666;28;20800;-83
2021/12/23 09:57:43;;;;;;;42.70;14.37;;;;;;;;;;5058391;28;20071;-83
2021/12/23 10:00:11;;;;;;;44.37;15.73;;;;;;;;;;5051561;28;20071;-83
2021/12/23 10:02:40;;;;;;;38.10;14.33;;;;;;;;;;5061935;28;20056;-83
2021/12/23 10:05:05;;;;;;;39.67;14.87;;;;;;;;;;5056586;28;20063;-83
2021/12/23 10:07:31;;;;;;;41.00;14.83;;;;;;;;;;5060532;28;20548;-83
2021/12/23 10:10:10;;;;;;;40.80;15.47;;;;;;;;;;5052860;28;20100;-82
2021/12/23 10:27:32;;;;;;;37.17;13.63;;;;;;;;;;5056389;28;20391;-83
2021/12/23 10:37:32;;;;;;;39.90;14.80;;;;;;;;;;5053046;28;20064;-83
2021/12/23 10:40:03;;;;;;;42.37;15.77;;;;;;;;;;5051442;28;20068;-82
2021/12/23 10:42:29;;;;;;;43.80;15.07;;;;;;;;;;5050671;28;20037;-82
2021/12/23 10:44:59;;;;;;;41.77;16.23;;;;;;;;;;5051879;28;20365;-82
2021/12/23 10:47:29;;;;;;;39.10;14.83;;;;;;;;;;5056588;28;20079;-83
2021/12/23 10:49:59;;;;;;;38.50;15.13;;;;;;;;;;5048426;28;20033;-82
2021/12/23 10:52:29;;;;;;;40.30;14.33;;;;;;;;;;5056377;28;20028;-82
2021/12/23 11:00:13;;;;;;;39.27;14.17;;;;;;;;;;5063427;28;20085;-82
2021/12/23 11:02:41;;;;;;;38.93;15.33;;;;;;;;;;5055436;28;20437;-83
2021/12/23 11:05:13;;;;;;;36.87;14.43;;;;;;;;;;5058471;28;20021;-83
2021/12/23 11:07:43;;;;;;;38.93;15.37;;;;;;;;;;5052702;28;20031;-83
2021/12/23 11:37:14;;;;;;;45.00;15.10;;;;;;;;;;5045943;28;20028;-83
2021/12/23 11:42:37;;;;;;;42.60;16.37;;;;;;;;;;5050525;28;20028;-83
2021/12/23 11:45:03;;;;;;;41.10;15.07;;;;;;;;;;5086322;28;20063;-83
2021/12/23 11:47:28;;;;;;;36.13;15.20;;;;;;;;;;5052130;28;20056;-83
2021/12/23 11:49:54;;;;;;;38.47;17.17;;;;;;;;;;5051427;28;20392;-83
2021/12/23 11:52:19;;;;;;;54.90;25.30;;;;;;;;;;5053398;28;20017;-83
2021/12/23 11:54:46;;;;;;;42.43;18.60;;;;;;;;;;5084158;28;20024;-83
2021/12/23 11:57:14;;;;;;;36.70;15.87;;;;;;;;;;5053843;28;20025;-83
2021/12/23 11:59:43;;;;;;;36.57;14.73;;;;;;;;;;5050862;28;20031;-82
2021/12/23 12:02:29;;;;;;;51.80;16.97;;;;;;;;;;5084366;28;20021;-83
2021/12/23 12:04:58;;;;;;;39.57;15.87;;;;;;;;;;5050721;28;20029;-82
2021/12/23 12:07:24;;;;;;;44.03;16.73;;;;;;;;;;5053280;28;20021;-83
2021/12/23 12:09:57;;;;;;;37.13;14.73;;;;;;;;;;5086103;28;20025;-83
2021/12/23 12:12:22;;;;;;;45.77;16.30;;;;;;;;;;5045737;28;20392;-83
2021/12/23 12:14:47;;;;;;;41.67;17.20;;;;;;;;;;5051909;28;20025;-82
2021/12/23 12:17:25;;;;;;;44.97;17.27;;;;;;;;;;5053001;28;20020;-83
2021/12/23 12:19:57;;;;;;;48.63;15.60;;;;;;;;;;5050088;28;20036;-82
2021/12/23 12:22:41;;;;;;;43.38;15.98;;;;;;;;;;5067938;28;20016;-83
2021/12/23 12:25:06;;;;;;;34.03;15.00;;;;;;;;;;5064042;28;20473;-82
2021/12/23 12:27:33;;;;;;;39.13;14.97;;;;;;;;;;5080692;28;20021;-82
2021/12/23 12:30:05;;;;;;;39.17;16.33;;;;;;;;;;5078220;28;20025;-83
2021/12/23 12:32:34;;;;;;;40.10;16.33;;;;;;;;;;5047162;28;20059;-82
2021/12/23 12:35:00;;;;;;;42.37;16.53;;;;;;;;;;5048996;28;20465;-82
2021/12/23 12:37:39;;;;;;;37.13;15.53;;;;;;;;;;5050963;28;20021;-83
2021/12/23 12:40:05;;;;;;;42.03;16.93;;;;;;;;;;5046335;28;20017;-83
2021/12/23 12:42:36;;;;;;;39.30;17.37;;;;;;;;;;5045926;28;20136;-83
2021/12/23 12:45:10;;;;;;;41.05;16.63;;;;;;;;;;5047787;28;20021;-83
2021/12/23 12:47:39;;;;;;;43.93;16.50;;;;;;;;;;5085903;28;20023;-83
2021/12/23 12:50:16;;;;;;;39.17;17.00;;;;;;;;;;5083682;28;20021;-83
2021/12/23 12:52:44;;;;;;;41.73;17.27;;;;;;;;;;5084378;28;20544;-83
2021/12/23 12:55:12;;;;;;;37.00;14.53;;;;;;;;;;5085397;28;20028;-83
2021/12/23 12:57:41;;;;;;;46.50;16.13;;;;;;;;;;5045887;28;20537;-83
2021/12/23 13:00:19;;;;;;;38.40;14.00;;;;;;;;;;5052231;28;20021;-83
2021/12/23 13:02:49;;;;;;;40.87;18.40;;;;;;;;;;5076358;28;20063;-83
2021/12/23 13:05:14;;;;;;;36.50;17.83;;;;;;;;;;5077031;28;20021;-83
2021/12/23 13:07:41;;;;;;;47.10;19.47;;;;;;;;;;5080278;28;20074;-83
2021/12/23 13:10:10;;;;;;;36.93;15.77;;;;;;;;;;5049736;28;20104;-83
2021/12/23 13:12:43;;;;;;;38.73;16.53;;;;;;;;;;5084114;28;20435;-83
2021/12/23 13:15:19;;;;;;;45.43;17.23;;;;;;;;;;5056452;28;20020;-83
2021/12/23 13:17:58;;;;;;;40.57;16.57;;;;;;;;;;5045089;28;20033;-83
2021/12/23 13:20:30;;;;;;;41.20;18.67;;;;;;;;;;5052727;28;20440;-83
2021/12/23 13:22:59;;;;;;;37.58;16.42;;;;;;;;;;5059675;28;20107;-83
2021/12/23 13:25:24;;;;;;;39.90;19.13;;;;;;;;;;5082953;28;20035;-83
2021/12/23 13:27:49;;;;;;;39.20;16.63;;;;;;;;;;5080306;28;20372;-83
2021/12/23 13:30:15;;;;;;;39.40;18.63;;;;;;;;;;5047122;28;20009;-83
2021/12/23 13:32:40;;;;;;;43.03;17.80;;;;;;;;;;5049660;28;20164;-83
2021/12/23 13:35:13;;;;;;;38.13;17.70;;;;;;;;;;5083130;28;20024;-83
2021/12/23 13:37:42;;;;;;;41.27;17.23;;;;;;;;;;5051340;28;20392;-83
2021/12/23 13:40:08;;;;;;;44.13;17.70;;;;;;;;;;5051399;28;20021;-83
2021/12/23 13:42:37;;;;;;;38.53;17.47;;;;;;;;;;5050177;28;20430;-83
2021/12/23 13:45:02;;;;;;;44.63;17.40;;;;;;;;;;5039484;28;20109;-83
2021/12/23 13:47:28;;;;;;;46.43;17.93;;;;;;;;;;5047884;28;20455;-83
2021/12/23 13:49:56;;;;;;;40.67;17.20;;;;;;;;;;5051815;28;20066;-83
2021/12/23 13:52:22;;;;;;;41.10;17.33;;;;;;;;;;5051304;28;20024;-83
2021/12/23 13:54:47;;;;;;;46.43;20.30;;;;;;;;;;5083242;28;20029;-83
2021/12/23 13:57:17;;;;;;;41.30;18.87;;;;;;;;;;5084366;28;20400;-83
2021/12/23 13:59:43;;;;;;;42.00;20.67;;;;;;;;;;5083895;28;20029;-83
2021/12/23 14:02:13;;;;;;;42.47;19.07;;;;;;;;;;5083600;28;20025;-83
2021/12/23 14:04:52;;;;;;;45.37;19.70;;;;;;;;;;5049439;28;20025;-83
2021/12/23 14:07:17;;;;;;;44.03;19.73;;;;;;;;;;5051602;28;20025;-83
2021/12/23 14:09:45;;;;;;;46.57;20.87;;;;;;;;;;5082957;28;20025;-83
2021/12/23 14:12:13;;;;;;;44.23;18.07;;;;;;;;;;5053301;28;20020;-83
2021/12/23 14:15:01;;;;;;;44.03;18.07;;;;;;;;;;5051134;28;20024;-83
2021/12/23 14:17:31;;;;;;;51.13;17.27;;;;;;;;;;5054609;28;20025;-83
2021/12/23 14:23:11;;;;;;;46.53;20.13;;;;;;;;;;5062490;28;20024;-83
2021/12/23 14:25:28;;;;;;;46.93;19.07;;;;;;;;;;5060006;28;20115;-83
2021/12/23 14:27:53;;;;;;;44.67;18.23;;;;;;;;;;5056485;28;20527;-83
2021/12/23 14:30:18;;;;;;;48.33;18.83;;;;;;;;;;5052073;28;20024;-83
2021/12/23 14:32:43;;;;;;;41.37;17.40;;;;;;;;;;5053895;28;20082;-83
2021/12/23 14:35:25;;;;;;;42.00;17.47;;;;;;;;;;5061233;28;20115;-83
2021/12/23 14:37:58;;;;;;;43.87;17.87;;;;;;;;;;5050761;28;20017;-83
2021/12/23 14:40:23;;;;;;;44.40;19.20;;;;;;;;;;5065442;28;20035;-83
2021/12/23 14:42:58;;;;;;;49.63;17.50;;;;;;;;;;5064950;28;20017;-83
2021/12/23 14:45:24;;;;;;;46.23;19.40;;;;;;;;;;5060342;28;20021;-83
2021/12/23 14:48:07;;;;;;;50.67;21.70;;;;;;;;;;5052445;28;20017;-83
2021/12/23 14:50:37;;;;;;;45.20;15.90;;;;;;;;;;5054933;28;20016;-83
2021/12/23 14:53:15;;;;;;;49.30;19.43;;;;;;;;;;5052022;28;20078;-83
2021/12/23 14:55:40;;;;;;;45.87;18.03;;;;;;;;;;5058002;28;20369;-83
2021/12/23 14:58:06;;;;;;;47.77;20.40;;;;;;;;;;5053780;28;20033;-82
2021/12/23 15:00:37;;;;;;;46.67;19.57;;;;;;;;;;5059227;28;20021;-83
2021/12/23 15:03:04;;;;;;;39.93;16.47;;;;;;;;;;5062352;28;20024;-82
2021/12/23 15:05:29;;;;;;;48.63;20.17;;;;;;;;;;5060005;28;20461;-82
2021/12/23 15:07:59;;;;;;;54.50;20.33;;;;;;;;;;5059015;28;20023;-83
2021/12/23 15:10:35;;;;;;;52.07;17.87;;;;;;;;;;5061391;28;20024;-83
2021/12/23 15:13:11;;;;;;;54.97;20.27;;;;;;;;;;5050825;28;20025;-83
2021/12/23 15:15:36;;;;;;;49.77;18.93;;;;;;;;;;5058384;28;20675;-83
2021/12/23 15:18:13;;;;;;;50.27;21.00;;;;;;;;;;5054463;28;20028;-82
2021/12/23 15:20:45;;;;;;;56.93;24.30;;;;;;;;;;5058235;28;20787;-83
2021/12/23 15:23:11;;;;;;;52.83;19.70;;;;;;;;;;5066318;28;20392;-82
2021/12/23 15:25:37;;;;;;;57.87;23.77;;;;;;;;;;5059868;28;20024;-82